sensor_id;sensor_type;location;lat;lon;timestamp;temperature;humidity
46356;DHT22;32066;49.474;11.106;2023-08-01T00:01:02;20.10;99.90
46356;DHT22;32066;49.474;11.106;2023-08-01T00:03:31;20.10;99.90
46356;DHT22;32066;49.474;11.106;2023-08-01T00:06:03;20.10;99.90
46356;DHT22;32066;49.474;11.106;2023-08-01T00:08:31;20.10;99.90
46356;DHT22;32066;49.474;11.106;2023-08-01T00:11:00;20.10;99.90
46356;DHT22;32066;49.474;11.106;2023-08-01T00:13:29;20.10;99.90
46356;DHT22;32066;49.474;11.106;2023-08-01T00:15:57;20.10;99.90
46356;DHT22;32066;49.474;11.106;2023-08-01T00:18:26;20.00;99.90
46356;DHT22;32066;49.474;11.106;2023-08-01T00:20:54;20.00;99.90
46356;DHT22;32066;49.474;11.106;2023-08-01T00:23:27;20.00;99.90
46356;DHT22;32066;49.474;11.106;2023-08-01T00:25:55;20.00;99.90
46356;DHT22;32066;49.474;11.106;2023-08-01T00:28:24;20.00;99.90
46356;DHT22;32066;49.474;11.106;2023-08-01T00:31:01;19.80;99.90
46356;DHT22;32066;49.474;11.106;2023-08-01T00:33:31;19.80;99.90
46356;DHT22;32066;49.474;11.106;2023-08-01T00:35:59;19.80;99.90
46356;DHT22;32066;49.474;11.106;2023-08-01T00:38:31;19.70;99.90
46356;DHT22;32066;49.474;11.106;2023-08-01T00:40:59;19.70;99.90
46356;DHT22;32066;49.474;11.106;2023-08-01T00:43:28;19.70;99.90
46356;DHT22;32066;49.474;11.106;2023-08-01T00:46:00;19.70;99.90
46356;DHT22;32066;49.474;11.106;2023-08-01T00:48:29;19.70;99.90
46356;DHT22;32066;49.474;11.106;2023-08-01T00:51:01;19.70;99.90
46356;DHT22;32066;49.474;11.106;2023-08-01T00:53:34;19.70;99.90
46356;DHT22;32066;49.474;11.106;2023-08-01T00:56:04;19.80;99.90
46356;DHT22;32066;49.474;11.106;2023-08-01T00:58:32;19.80;99.90
46356;DHT22;32066;49.474;11.106;2023-08-01T01:01:01;19.70;99.90
46356;DHT22;32066;49.474;11.106;2023-08-01T01:03:30;20.30;99.90
46356;DHT22;32066;49.474;11.106;2023-08-01T01:06:09;19.80;99.90
46356;DHT22;32066;49.474;11.106;2023-08-01T01:08:41;19.70;99.90
46356;DHT22;32066;49.474;11.106;2023-08-01T01:11:10;19.70;99.90
46356;DHT22;32066;49.474;11.106;2023-08-01T01:13:39;19.60;99.90
46356;DHT22;32066;49.474;11.106;2023-08-01T01:16:07;19.60;99.90
46356;DHT22;32066;49.474;11.106;2023-08-01T01:18:36;19.60;99.90
46356;DHT22;32066;49.474;11.106;2023-08-01T01:21:07;19.60;99.90
46356;DHT22;32066;49.474;11.106;2023-08-01T01:23:37;19.60;99.90
46356;DHT22;32066;49.474;11.106;2023-08-01T01:26:06;19.50;99.90
46356;DHT22;32066;49.474;11.106;2023-08-01T01:28:36;19.50;99.90
46356;DHT22;32066;49.474;11.106;2023-08-01T01:31:06;19.50;99.90
46356;DHT22;32066;49.474;11.106;2023-08-01T01:33:35;19.50;99.90
46356;DHT22;32066;49.474;11.106;2023-08-01T01:36:07;19.40;99.90
46356;DHT22;32066;49.474;11.106;2023-08-01T01:38:36;19.40;99.90
46356;DHT22;32066;49.474;11.106;2023-08-01T01:41:05;19.40;99.90
46356;DHT22;32066;49.474;11.106;2023-08-01T01:43:33;19.30;99.90
46356;DHT22;32066;49.474;11.106;2023-08-01T01:46:03;19.30;99.90
46356;DHT22;32066;49.474;11.106;2023-08-01T01:48:32;19.30;99.90
46356;DHT22;32066;49.474;11.106;2023-08-01T01:51:01;19.30;99.90
46356;DHT22;32066;49.474;11.106;2023-08-01T01:53:32;19.30;99.90
46356;DHT22;32066;49.474;11.106;2023-08-01T01:56:01;19.20;99.90
46356;DHT22;32066;49.474;11.106;2023-08-01T01:58:30;19.20;99.90
46356;DHT22;32066;49.474;11.106;2023-08-01T02:00:58;19.20;99.90
46356;DHT22;32066;49.474;11.106;2023-08-01T02:03:27;19.10;99.90
46356;DHT22;32066;49.474;11.106;2023-08-01T02:05:56;19.10;99.90
46356;DHT22;32066;49.474;11.106;2023-08-01T02:08:24;19.10;99.90
46356;DHT22;32066;49.474;11.106;2023-08-01T02:10:56;19.10;99.90
46356;DHT22;32066;49.474;11.106;2023-08-01T02:13:25;19.10;99.90
46356;DHT22;32066;49.474;11.106;2023-08-01T02:15:54;19.10;99.90
46356;DHT22;32066;49.474;11.106;2023-08-01T02:18:23;19.10;99.90
46356;DHT22;32066;49.474;11.106;2023-08-01T02:20:52;19.10;99.90
46356;DHT22;32066;49.474;11.106;2023-08-01T02:23:21;19.10;99.90
46356;DHT22;32066;49.474;11.106;2023-08-01T02:25:49;19.00;99.90
46356;DHT22;32066;49.474;11.106;2023-08-01T02:28:21;19.00;99.90
46356;DHT22;32066;49.474;11.106;2023-08-01T02:30:49;18.90;99.90
46356;DHT22;32066;49.474;11.106;2023-08-01T02:33:20;18.90;99.90
46356;DHT22;32066;49.474;11.106;2023-08-01T02:35:48;19.00;99.90
46356;DHT22;32066;49.474;11.106;2023-08-01T02:38:17;19.00;99.90
46356;DHT22;32066;49.474;11.106;2023-08-01T02:40:46;19.00;99.90
46356;DHT22;32066;49.474;11.106;2023-08-01T02:43:15;19.00;99.90
46356;DHT22;32066;49.474;11.106;2023-08-01T02:45:46;19.00;99.90
46356;DHT22;32066;49.474;11.106;2023-08-01T02:48:15;19.00;99.90
46356;DHT22;32066;49.474;11.106;2023-08-01T02:50:44;19.00;99.90
46356;DHT22;32066;49.474;11.106;2023-08-01T02:53:13;19.00;99.90
46356;DHT22;32066;49.474;11.106;2023-08-01T02:55:43;19.00;99.90
46356;DHT22;32066;49.474;11.106;2023-08-01T02:58:12;18.90;99.90
46356;DHT22;32066;49.474;11.106;2023-08-01T03:00:40;19.00;99.90
46356;DHT22;32066;49.474;11.106;2023-08-01T03:03:12;19.00;99.90
46356;DHT22;32066;49.474;11.106;2023-08-01T03:05:41;19.00;99.90
46356;DHT22;32066;49.474;11.106;2023-08-01T03:08:10;19.00;99.90
46356;DHT22;32066;49.474;11.106;2023-08-01T03:10:38;19.10;99.90
46356;DHT22;32066;49.474;11.106;2023-08-01T03:13:07;19.00;99.90
46356;DHT22;32066;49.474;11.106;2023-08-01T03:15:36;19.00;99.90
46356;DHT22;32066;49.474;11.106;2023-08-01T03:18:05;19.10;99.90
46356;DHT22;32066;49.474;11.106;2023-08-01T03:20:36;19.10;99.90
46356;DHT22;32066;49.474;11.106;2023-08-01T03:23:05;19.10;99.90
46356;DHT22;32066;49.474;11.106;2023-08-01T03:25:34;19.00;99.90
46356;DHT22;32066;49.474;11.106;2023-08-01T03:28:04;19.00;99.90
46356;DHT22;32066;49.474;11.106;2023-08-01T03:30:33;19.00;99.90
46356;DHT22;32066;49.474;11.106;2023-08-01T03:33:01;18.80;99.90
46356;DHT22;32066;49.474;11.106;2023-08-01T03:35:31;18.80;99.90
46356;DHT22;32066;49.474;11.106;2023-08-01T03:38:02;18.90;99.90
46356;DHT22;32066;49.474;11.106;2023-08-01T03:40:31;18.80;99.90
46356;DHT22;32066;49.474;11.106;2023-08-01T03:42:59;18.80;99.90
46356;DHT22;32066;49.474;11.106;2023-08-01T03:45:28;18.80;99.90
46356;DHT22;32066;49.474;11.106;2023-08-01T03:47:56;18.80;99.90
46356;DHT22;32066;49.474;11.106;2023-08-01T03:50:25;18.70;99.90
46356;DHT22;32066;49.474;11.106;2023-08-01T03:52:54;18.70;99.90
46356;DHT22;32066;49.474;11.106;2023-08-01T03:55:25;18.70;99.90
46356;DHT22;32066;49.474;11.106;2023-08-01T03:57:54;18.70;99.90
46356;DHT22;32066;49.474;11.106;2023-08-01T04:00:23;18.70;99.90
46356;DHT22;32066;49.474;11.106;2023-08-01T04:02:58;18.70;99.90
46356;DHT22;32066;49.474;11.106;2023-08-01T04:05:27;18.70;99.90
46356;DHT22;32066;49.474;11.106;2023-08-01T04:07:56;18.70;99.90
46356;DHT22;32066;49.474;11.106;2023-08-01T04:10:27;18.70;99.90
46356;DHT22;32066;49.474;11.106;2023-08-01T04:12:56;18.70;99.90
46356;DHT22;32066;49.474;11.106;2023-08-01T04:15:24;18.70;99.90
46356;DHT22;32066;49.474;11.106;2023-08-01T04:17:53;18.60;99.90
46356;DHT22;32066;49.474;11.106;2023-08-01T04:20:22;18.60;99.90
46356;DHT22;32066;49.474;11.106;2023-08-01T04:22:50;18.60;99.90
46356;DHT22;32066;49.474;11.106;2023-08-01T04:25:19;18.60;99.90
46356;DHT22;32066;49.474;11.106;2023-08-01T04:27:52;18.60;99.90
46356;DHT22;32066;49.474;11.106;2023-08-01T04:30:20;18.60;99.90
46356;DHT22;32066;49.474;11.106;2023-08-01T04:32:49;18.60;99.90
46356;DHT22;32066;49.474;11.106;2023-08-01T04:35:18;18.50;99.90
46356;DHT22;32066;49.474;11.106;2023-08-01T04:37:46;18.50;99.90
46356;DHT22;32066;49.474;11.106;2023-08-01T04:40:15;18.60;99.90
46356;DHT22;32066;49.474;11.106;2023-08-01T04:42:44;18.60;99.90
46356;DHT22;32066;49.474;11.106;2023-08-01T04:45:15;18.60;99.90
46356;DHT22;32066;49.474;11.106;2023-08-01T04:47:44;18.50;99.90
46356;DHT22;32066;49.474;11.106;2023-08-01T04:50:12;18.40;99.90
46356;DHT22;32066;49.474;11.106;2023-08-01T04:52:41;18.40;99.90
46356;DHT22;32066;49.474;11.106;2023-08-01T04:55:10;18.40;99.90
46356;DHT22;32066;49.474;11.106;2023-08-01T04:57:38;18.40;99.90
46356;DHT22;32066;49.474;11.106;2023-08-01T05:00:09;18.40;99.90
46356;DHT22;32066;49.474;11.106;2023-08-01T05:02:40;18.30;99.90
46356;DHT22;32066;49.474;11.106;2023-08-01T05:05:09;18.30;99.90
46356;DHT22;32066;49.474;11.106;2023-08-01T05:07:37;18.40;99.90
46356;DHT22;32066;49.474;11.106;2023-08-01T05:10:07;18.30;99.90
46356;DHT22;32066;49.474;11.106;2023-08-01T05:12:36;18.40;99.90
46356;DHT22;32066;49.474;11.106;2023-08-01T05:15:05;18.40;99.90
46356;DHT22;32066;49.474;11.106;2023-08-01T05:17:34;18.30;99.90
46356;DHT22;32066;49.474;11.106;2023-08-01T05:20:07;18.30;99.90
46356;DHT22;32066;49.474;11.106;2023-08-01T05:22:35;18.30;99.90
46356;DHT22;32066;49.474;11.106;2023-08-01T05:25:05;18.40;99.90
46356;DHT22;32066;49.474;11.106;2023-08-01T05:27:34;18.40;99.90
46356;DHT22;32066;49.474;11.106;2023-08-01T05:30:03;18.40;99.90
46356;DHT22;32066;49.474;11.106;2023-08-01T05:32:32;18.40;99.90
46356;DHT22;32066;49.474;11.106;2023-08-01T05:35:01;18.50;99.90
46356;DHT22;32066;49.474;11.106;2023-08-01T05:37:32;18.50;99.90
46356;DHT22;32066;49.474;11.106;2023-08-01T05:40:01;18.60;99.90
46356;DHT22;32066;49.474;11.106;2023-08-01T05:42:29;18.60;99.90
46356;DHT22;32066;49.474;11.106;2023-08-01T05:44:58;18.60;99.90
46356;DHT22;32066;49.474;11.106;2023-08-01T05:47:27;18.70;99.90
46356;DHT22;32066;49.474;11.106;2023-08-01T05:49:55;18.70;99.90
46356;DHT22;32066;49.474;11.106;2023-08-01T05:52:24;18.70;99.90
46356;DHT22;32066;49.474;11.106;2023-08-01T05:54:55;18.70;99.90
46356;DHT22;32066;49.474;11.106;2023-08-01T05:57:24;18.60;99.90
46356;DHT22;32066;49.474;11.106;2023-08-01T05:59:53;18.60;99.90
46356;DHT22;32066;49.474;11.106;2023-08-01T06:02:22;18.60;99.90
46356;DHT22;32066;49.474;11.106;2023-08-01T06:04:50;18.70;99.90
46356;DHT22;32066;49.474;11.106;2023-08-01T06:07:19;18.70;99.90
46356;DHT22;32066;49.474;11.106;2023-08-01T06:09:48;18.70;99.90
46356;DHT22;32066;49.474;11.106;2023-08-01T06:12:21;18.70;99.90
46356;DHT22;32066;49.474;11.106;2023-08-01T06:14:51;18.70;99.90
46356;DHT22;32066;49.474;11.106;2023-08-01T06:17:19;18.70;99.90
46356;DHT22;32066;49.474;11.106;2023-08-01T06:19:48;18.70;99.90
46356;DHT22;32066;49.474;11.106;2023-08-01T06:22:18;18.80;99.90
46356;DHT22;32066;49.474;11.106;2023-08-01T06:24:46;18.80;99.90
46356;DHT22;32066;49.474;11.106;2023-08-01T06:27:15;18.80;99.90
46356;DHT22;32066;49.474;11.106;2023-08-01T06:29:46;18.80;99.90
46356;DHT22;32066;49.474;11.106;2023-08-01T06:32:15;18.90;99.90
46356;DHT22;32066;49.474;11.106;2023-08-01T06:34:43;18.90;99.90
46356;DHT22;32066;49.474;11.106;2023-08-01T06:37:12;18.90;99.90
46356;DHT22;32066;49.474;11.106;2023-08-01T06:39:40;19.00;99.90
46356;DHT22;32066;49.474;11.106;2023-08-01T06:42:09;18.90;99.90
46356;DHT22;32066;49.474;11.106;2023-08-01T06:44:38;19.00;99.90
46356;DHT22;32066;49.474;11.106;2023-08-01T06:47:09;18.90;99.90
46356;DHT22;32066;49.474;11.106;2023-08-01T06:49:38;18.90;99.90
46356;DHT22;32066;49.474;11.106;2023-08-01T06:52:07;18.90;99.90
46356;DHT22;32066;49.474;11.106;2023-08-01T06:54:36;18.90;99.90
46356;DHT22;32066;49.474;11.106;2023-08-01T06:57:06;18.90;99.90
46356;DHT22;32066;49.474;11.106;2023-08-01T06:59:34;18.90;99.90
46356;DHT22;32066;49.474;11.106;2023-08-01T07:02:04;18.80;99.90
46356;DHT22;32066;49.474;11.106;2023-08-01T07:04:37;18.90;99.90
46356;DHT22;32066;49.474;11.106;2023-08-01T07:07:05;18.90;99.90
46356;DHT22;32066;49.474;11.106;2023-08-01T07:09:34;18.90;99.90
46356;DHT22;32066;49.474;11.106;2023-08-01T07:12:04;18.90;99.90
46356;DHT22;32066;49.474;11.106;2023-08-01T07:14:33;18.80;99.90
46356;DHT22;32066;49.474;11.106;2023-08-01T07:17:01;18.80;99.90
46356;DHT22;32066;49.474;11.106;2023-08-01T07:19:30;18.80;99.90
46356;DHT22;32066;49.474;11.106;2023-08-01T07:22:01;18.80;99.90
46356;DHT22;32066;49.474;11.106;2023-08-01T07:24:30;18.80;99.90
46356;DHT22;32066;49.474;11.106;2023-08-01T07:26:59;18.80;99.90
46356;DHT22;32066;49.474;11.106;2023-08-01T07:29:27;18.80;99.90
46356;DHT22;32066;49.474;11.106;2023-08-01T07:31:56;18.80;99.90
46356;DHT22;32066;49.474;11.106;2023-08-01T07:34:24;18.80;99.90
46356;DHT22;32066;49.474;11.106;2023-08-01T07:36:53;18.80;99.90
46356;DHT22;32066;49.474;11.106;2023-08-01T07:39:24;18.90;99.90
46356;DHT22;32066;49.474;11.106;2023-08-01T07:41:53;18.90;99.90
46356;DHT22;32066;49.474;11.106;2023-08-01T07:44:21;18.90;99.90
46356;DHT22;32066;49.474;11.106;2023-08-01T07:46:50;18.90;99.90
46356;DHT22;32066;49.474;11.106;2023-08-01T07:49:19;18.90;99.90
46356;DHT22;32066;49.474;11.106;2023-08-01T07:51:47;19.00;99.90
46356;DHT22;32066;49.474;11.106;2023-08-01T07:54:16;19.00;99.90
46356;DHT22;32066;49.474;11.106;2023-08-01T07:56:47;19.00;99.90
46356;DHT22;32066;49.474;11.106;2023-08-01T07:59:16;18.90;99.90
46356;DHT22;32066;49.474;11.106;2023-08-01T08:01:45;18.90;99.90
46356;DHT22;32066;49.474;11.106;2023-08-01T08:04:14;18.90;99.90
46356;DHT22;32066;49.474;11.106;2023-08-01T08:06:42;18.90;99.90
46356;DHT22;32066;49.474;11.106;2023-08-01T08:09:11;18.90;99.90
46356;DHT22;32066;49.474;11.106;2023-08-01T08:11:39;18.90;99.90
46356;DHT22;32066;49.474;11.106;2023-08-01T08:14:11;18.90;99.90
46356;DHT22;32066;49.474;11.106;2023-08-01T08:16:40;18.80;99.90
46356;DHT22;32066;49.474;11.106;2023-08-01T08:19:09;18.80;99.90
46356;DHT22;32066;49.474;11.106;2023-08-01T08:21:38;18.80;99.90
46356;DHT22;32066;49.474;11.106;2023-08-01T08:24:06;18.70;99.90
46356;DHT22;32066;49.474;11.106;2023-08-01T08:26:35;18.50;99.90
46356;DHT22;32066;49.474;11.106;2023-08-01T08:29:05;18.60;99.90
46356;DHT22;32066;49.474;11.106;2023-08-01T08:31:36;18.50;99.90
46356;DHT22;32066;49.474;11.106;2023-08-01T08:34:05;18.50;99.90
46356;DHT22;32066;49.474;11.106;2023-08-01T08:36:34;18.40;99.90
46356;DHT22;32066;49.474;11.106;2023-08-01T08:39:02;18.40;99.90
46356;DHT22;32066;49.474;11.106;2023-08-01T08:41:37;18.40;99.90
46356;DHT22;32066;49.474;11.106;2023-08-01T08:44:07;18.30;99.90
46356;DHT22;32066;49.474;11.106;2023-08-01T08:46:41;18.20;99.90
46356;DHT22;32066;49.474;11.106;2023-08-01T08:49:10;18.20;99.90
46356;DHT22;32066;49.474;11.106;2023-08-01T08:51:43;18.10;99.90
46356;DHT22;32066;49.474;11.106;2023-08-01T08:54:13;18.10;99.90
46356;DHT22;32066;49.474;11.106;2023-08-01T08:56:42;18.00;99.90
46356;DHT22;32066;49.474;11.106;2023-08-01T08:59:11;18.10;99.90
46356;DHT22;32066;49.474;11.106;2023-08-01T09:01:43;18.00;99.90
46356;DHT22;32066;49.474;11.106;2023-08-01T09:04:12;17.90;99.90
46356;DHT22;32066;49.474;11.106;2023-08-01T09:06:45;17.90;99.90
46356;DHT22;32066;49.474;11.106;2023-08-01T09:09:14;17.90;99.90
46356;DHT22;32066;49.474;11.106;2023-08-01T09:11:46;17.90;99.90
46356;DHT22;32066;49.474;11.106;2023-08-01T09:14:16;17.90;99.90
46356;DHT22;32066;49.474;11.106;2023-08-01T09:16:48;17.90;99.90
46356;DHT22;32066;49.474;11.106;2023-08-01T09:19:17;18.10;99.90
46356;DHT22;32066;49.474;11.106;2023-08-01T09:21:47;18.10;99.90
46356;DHT22;32066;49.474;11.106;2023-08-01T09:24:16;18.10;99.90
46356;DHT22;32066;49.474;11.106;2023-08-01T09:26:46;18.10;99.90
46356;DHT22;32066;49.474;11.106;2023-08-01T09:29:16;18.10;99.90
46356;DHT22;32066;49.474;11.106;2023-08-01T09:31:47;18.20;99.90
46356;DHT22;32066;49.474;11.106;2023-08-01T09:34:21;18.20;99.90
46356;DHT22;32066;49.474;11.106;2023-08-01T09:36:50;18.20;99.90
46356;DHT22;32066;49.474;11.106;2023-08-01T09:39:20;18.30;99.90
46356;DHT22;32066;49.474;11.106;2023-08-01T09:41:55;18.40;99.90
46356;DHT22;32066;49.474;11.106;2023-08-01T09:44:25;18.40;99.90
46356;DHT22;32066;49.474;11.106;2023-08-01T09:47:01;18.40;99.90
46356;DHT22;32066;49.474;11.106;2023-08-01T09:49:31;18.50;99.90
46356;DHT22;32066;49.474;11.106;2023-08-01T09:52:00;18.40;99.90
46356;DHT22;32066;49.474;11.106;2023-08-01T09:54:29;18.50;99.90
46356;DHT22;32066;49.474;11.106;2023-08-01T09:56:58;18.40;99.90
46356;DHT22;32066;49.474;11.106;2023-08-01T09:59:27;18.40;99.90
46356;DHT22;32066;49.474;11.106;2023-08-01T10:02:00;18.40;99.90
46356;DHT22;32066;49.474;11.106;2023-08-01T10:04:30;18.40;99.90
46356;DHT22;32066;49.474;11.106;2023-08-01T10:07:02;18.40;99.90
46356;DHT22;32066;49.474;11.106;2023-08-01T10:09:37;18.50;99.90
46356;DHT22;32066;49.474;11.106;2023-08-01T10:12:08;18.50;99.90
46356;DHT22;32066;49.474;11.106;2023-08-01T10:14:38;18.60;99.90
46356;DHT22;32066;49.474;11.106;2023-08-01T10:17:10;18.60;99.90
46356;DHT22;32066;49.474;11.106;2023-08-01T10:19:40;18.60;99.90
46356;DHT22;32066;49.474;11.106;2023-08-01T10:22:10;18.60;99.90
46356;DHT22;32066;49.474;11.106;2023-08-01T10:24:39;18.60;99.90
46356;DHT22;32066;49.474;11.106;2023-08-01T10:27:12;18.70;99.90
46356;DHT22;32066;49.474;11.106;2023-08-01T10:29:42;18.70;99.90
46356;DHT22;32066;49.474;11.106;2023-08-01T10:32:14;18.70;99.90
46356;DHT22;32066;49.474;11.106;2023-08-01T10:34:50;18.60;99.90
46356;DHT22;32066;49.474;11.106;2023-08-01T10:37:20;18.70;99.90
46356;DHT22;32066;49.474;11.106;2023-08-01T10:39:56;18.60;99.90
46356;DHT22;32066;49.474;11.106;2023-08-01T10:42:36;18.70;99.90
46356;DHT22;32066;49.474;11.106;2023-08-01T10:45:06;18.70;99.90
46356;DHT22;32066;49.474;11.106;2023-08-01T10:47:37;18.80;99.90
46356;DHT22;32066;49.474;11.106;2023-08-01T10:50:13;18.80;99.90
46356;DHT22;32066;49.474;11.106;2023-08-01T10:52:43;18.80;99.90
46356;DHT22;32066;49.474;11.106;2023-08-01T10:55:12;18.90;99.90
46356;DHT22;32066;49.474;11.106;2023-08-01T10:57:49;18.90;99.90
46356;DHT22;32066;49.474;11.106;2023-08-01T11:00:19;18.90;99.90
46356;DHT22;32066;49.474;11.106;2023-08-01T11:02:53;19.00;99.90
46356;DHT22;32066;49.474;11.106;2023-08-01T11:05:22;19.00;99.90
46356;DHT22;32066;49.474;11.106;2023-08-01T11:07:54;19.10;99.90
46356;DHT22;32066;49.474;11.106;2023-08-01T11:10:25;19.10;99.90
46356;DHT22;32066;49.474;11.106;2023-08-01T11:12:54;19.20;99.90
46356;DHT22;32066;49.474;11.106;2023-08-01T11:15:23;19.30;99.90
46356;DHT22;32066;49.474;11.106;2023-08-01T11:17:55;19.30;99.90
46356;DHT22;32066;49.474;11.106;2023-08-01T11:20:24;19.30;99.90
46356;DHT22;32066;49.474;11.106;2023-08-01T11:22:57;19.40;99.90
46356;DHT22;32066;49.474;11.106;2023-08-01T11:25:33;19.50;99.90
46356;DHT22;32066;49.474;11.106;2023-08-01T11:28:06;19.60;99.90
46356;DHT22;32066;49.474;11.106;2023-08-01T11:30:36;19.60;99.90
46356;DHT22;32066;49.474;11.106;2023-08-01T11:33:16;19.60;99.90
46356;DHT22;32066;49.474;11.106;2023-08-01T11:35:46;19.60;99.90
46356;DHT22;32066;49.474;11.106;2023-08-01T11:38:14;19.60;99.90
46356;DHT22;32066;49.474;11.106;2023-08-01T11:40:43;19.60;99.90
46356;DHT22;32066;49.474;11.106;2023-08-01T11:43:12;19.60;99.90
46356;DHT22;32066;49.474;11.106;2023-08-01T11:45:48;19.60;99.90
46356;DHT22;32066;49.474;11.106;2023-08-01T11:48:21;19.60;99.90
46356;DHT22;32066;49.474;11.106;2023-08-01T11:50:55;19.70;99.90
46356;DHT22;32066;49.474;11.106;2023-08-01T11:53:24;19.60;99.90
46356;DHT22;32066;49.474;11.106;2023-08-01T11:55:53;19.60;99.90
46356;DHT22;32066;49.474;11.106;2023-08-01T11:58:28;19.40;99.90
46356;DHT22;32066;49.474;11.106;2023-08-01T12:01:06;19.40;99.90
46356;DHT22;32066;49.474;11.106;2023-08-01T12:03:45;19.30;99.90
46356;DHT22;32066;49.474;11.106;2023-08-01T12:06:14;19.30;99.90
46356;DHT22;32066;49.474;11.106;2023-08-01T12:08:45;19.30;99.90
46356;DHT22;32066;49.474;11.106;2023-08-01T12:11:18;19.40;99.90
46356;DHT22;32066;49.474;11.106;2023-08-01T12:13:47;19.40;99.90
46356;DHT22;32066;49.474;11.106;2023-08-01T12:16:16;19.40;99.90
46356;DHT22;32066;49.474;11.106;2023-08-01T12:18:48;19.30;99.40
46356;DHT22;32066;49.474;11.106;2023-08-01T12:21:17;19.30;99.40
46356;DHT22;32066;49.474;11.106;2023-08-01T12:23:46;19.50;99.70
46356;DHT22;32066;49.474;11.106;2023-08-01T12:26:15;19.60;98.50
46356;DHT22;32066;49.474;11.106;2023-08-01T12:28:43;19.70;97.80
46356;DHT22;32066;49.474;11.106;2023-08-01T12:31:16;19.90;97.30
46356;DHT22;32066;49.474;11.106;2023-08-01T12:33:44;20.10;96.60
46356;DHT22;32066;49.474;11.106;2023-08-01T12:36:16;20.30;95.50
46356;DHT22;32066;49.474;11.106;2023-08-01T12:38:45;20.50;95.40
46356;DHT22;32066;49.474;11.106;2023-08-01T12:41:14;20.60;94.50
46356;DHT22;32066;49.474;11.106;2023-08-01T12:43:42;20.70;94.30
46356;DHT22;32066;49.474;11.106;2023-08-01T12:46:11;21.00;94.70
46356;DHT22;32066;49.474;11.106;2023-08-01T12:48:40;21.10;94.30
46356;DHT22;32066;49.474;11.106;2023-08-01T12:51:08;21.20;93.60
46356;DHT22;32066;49.474;11.106;2023-08-01T12:53:39;21.30;93.60
46356;DHT22;32066;49.474;11.106;2023-08-01T12:56:11;21.30;92.60
46356;DHT22;32066;49.474;11.106;2023-08-01T12:58:40;21.50;91.90
46356;DHT22;32066;49.474;11.106;2023-08-01T13:01:09;21.40;92.00
46356;DHT22;32066;49.474;11.106;2023-08-01T13:03:37;21.40;92.00
46356;DHT22;32066;49.474;11.106;2023-08-01T13:06:06;21.30;91.80
46356;DHT22;32066;49.474;11.106;2023-08-01T13:08:34;21.20;92.10
46356;DHT22;32066;49.474;11.106;2023-08-01T13:11:12;21.00;92.60
46356;DHT22;32066;49.474;11.106;2023-08-01T13:13:41;21.00;92.60
46356;DHT22;32066;49.474;11.106;2023-08-01T13:16:11;20.90;93.00
46356;DHT22;32066;49.474;11.106;2023-08-01T13:18:40;20.90;93.00
46356;DHT22;32066;49.474;11.106;2023-08-01T13:21:12;20.80;93.10
46356;DHT22;32066;49.474;11.106;2023-08-01T13:23:41;20.80;93.20
46356;DHT22;32066;49.474;11.106;2023-08-01T13:26:12;20.70;93.30
46356;DHT22;32066;49.474;11.106;2023-08-01T13:28:41;20.70;93.10
46356;DHT22;32066;49.474;11.106;2023-08-01T13:31:09;20.60;93.20
46356;DHT22;32066;49.474;11.106;2023-08-01T13:33:38;20.60;93.40
46356;DHT22;32066;49.474;11.106;2023-08-01T13:36:07;20.50;93.70
46356;DHT22;32066;49.474;11.106;2023-08-01T13:38:35;20.70;93.80
46356;DHT22;32066;49.474;11.106;2023-08-01T13:41:04;20.90;93.60
46356;DHT22;32066;49.474;11.106;2023-08-01T13:43:35;21.00;93.20
46356;DHT22;32066;49.474;11.106;2023-08-01T13:46:11;21.00;93.60
46356;DHT22;32066;49.474;11.106;2023-08-01T13:48:40;21.00;93.70
46356;DHT22;32066;49.474;11.106;2023-08-01T13:51:09;21.00;93.60
46356;DHT22;32066;49.474;11.106;2023-08-01T13:53:38;20.90;94.10
46356;DHT22;32066;49.474;11.106;2023-08-01T13:56:07;20.70;94.30
46356;DHT22;32066;49.474;11.106;2023-08-01T13:58:39;20.60;94.60
46356;DHT22;32066;49.474;11.106;2023-08-01T14:01:09;20.40;94.80
46356;DHT22;32066;49.474;11.106;2023-08-01T14:03:38;20.50;95.40
46356;DHT22;32066;49.474;11.106;2023-08-01T14:06:08;20.30;96.00
46356;DHT22;32066;49.474;11.106;2023-08-01T14:08:37;20.20;97.00
46356;DHT22;32066;49.474;11.106;2023-08-01T14:11:07;20.10;98.10
46356;DHT22;32066;49.474;11.106;2023-08-01T14:13:39;19.90;99.30
46356;DHT22;32066;49.474;11.106;2023-08-01T14:16:07;19.80;99.70
46356;DHT22;32066;49.474;11.106;2023-08-01T14:18:36;19.80;99.90
46356;DHT22;32066;49.474;11.106;2023-08-01T14:21:05;19.70;99.90
46356;DHT22;32066;49.474;11.106;2023-08-01T14:23:34;19.70;99.90
46356;DHT22;32066;49.474;11.106;2023-08-01T14:26:04;19.60;99.90
46356;DHT22;32066;49.474;11.106;2023-08-01T14:28:32;19.50;99.90
46356;DHT22;32066;49.474;11.106;2023-08-01T14:31:04;19.50;99.90
46356;DHT22;32066;49.474;11.106;2023-08-01T14:33:33;19.40;99.90
46356;DHT22;32066;49.474;11.106;2023-08-01T14:36:06;19.40;99.90
46356;DHT22;32066;49.474;11.106;2023-08-01T14:38:37;19.50;99.90
46356;DHT22;32066;49.474;11.106;2023-08-01T14:41:06;19.50;99.20
46356;DHT22;32066;49.474;11.106;2023-08-01T14:43:35;19.50;99.30
46356;DHT22;32066;49.474;11.106;2023-08-01T14:46:06;19.60;99.00
46356;DHT22;32066;49.474;11.106;2023-08-01T14:48:35;19.60;98.80
46356;DHT22;32066;49.474;11.106;2023-08-01T14:51:05;19.60;99.20
46356;DHT22;32066;49.474;11.106;2023-08-01T14:53:34;19.70;99.30
46356;DHT22;32066;49.474;11.106;2023-08-01T14:56:03;19.80;99.40
46356;DHT22;32066;49.474;11.106;2023-08-01T14:58:33;19.90;99.30
46356;DHT22;32066;49.474;11.106;2023-08-01T15:01:11;20.00;99.00
46356;DHT22;32066;49.474;11.106;2023-08-01T15:03:40;20.10;98.50
46356;DHT22;32066;49.474;11.106;2023-08-01T15:06:09;20.30;98.50
46356;DHT22;32066;49.474;11.106;2023-08-01T15:08:38;20.40;98.30
46356;DHT22;32066;49.474;11.106;2023-08-01T15:11:08;20.60;98.10
46356;DHT22;32066;49.474;11.106;2023-08-01T15:13:36;20.80;98.30
46356;DHT22;32066;49.474;11.106;2023-08-01T15:16:09;20.90;97.80
46356;DHT22;32066;49.474;11.106;2023-08-01T15:18:38;21.20;97.70
46356;DHT22;32066;49.474;11.106;2023-08-01T15:21:07;21.40;97.10
46356;DHT22;32066;49.474;11.106;2023-08-01T15:23:36;21.50;96.60
46356;DHT22;32066;49.474;11.106;2023-08-01T15:26:05;21.50;96.20
46356;DHT22;32066;49.474;11.106;2023-08-01T15:28:33;21.60;96.40
46356;DHT22;32066;49.474;11.106;2023-08-01T15:31:04;21.70;96.20